sensor_id;sensor_type;location;lat;lon;timestamp;P1;durP1;ratioP1;P2;durP2;ratioP2
76599;SDS011;65489;52.048;6.090;2023-04-21T00:01:01;2.35;;;1.27;;
76599;SDS011;65489;52.048;6.090;2023-04-21T00:03:27;2.05;;;1.50;;
76599;SDS011;65489;52.048;6.090;2023-04-21T00:05:57;1.92;;;1.35;;
76599;SDS011;65489;52.048;6.090;2023-04-21T00:08:23;3.97;;;1.77;;
76599;SDS011;65489;52.048;6.090;2023-04-21T00:10:48;2.08;;;1.88;;
76599;SDS011;65489;52.048;6.090;2023-04-21T00:13:14;2.17;;;1.77;;
76599;SDS011;65489;52.048;6.090;2023-04-21T00:15:39;3.65;;;1.73;;
76599;SDS011;65489;52.048;6.090;2023-04-21T00:18:05;2.38;;;1.77;;
76599;SDS011;65489;52.048;6.090;2023-04-21T00:20:31;2.60;;;2.00;;
76599;SDS011;65489;52.048;6.090;2023-04-21T00:22:57;3.97;;;1.70;;
76599;SDS011;65489;52.048;6.090;2023-04-21T00:25:22;2.22;;;1.58;;
76599;SDS011;65489;52.048;6.090;2023-04-21T00:27:48;2.15;;;1.73;;
76599;SDS011;65489;52.048;6.090;2023-04-21T00:30:14;1.85;;;1.60;;
76599;SDS011;65489;52.048;6.090;2023-04-21T00:32:40;2.45;;;1.90;;
76599;SDS011;65489;52.048;6.090;2023-04-21T00:35:06;4.90;;;1.92;;
76599;SDS011;65489;52.048;6.090;2023-04-21T00:37:32;2.65;;;1.92;;
76599;SDS011;65489;52.048;6.090;2023-04-21T00:39:57;2.17;;;1.75;;
76599;SDS011;65489;52.048;6.090;2023-04-21T00:42:23;1.70;;;1.60;;
76599;SDS011;65489;52.048;6.090;2023-04-21T00:44:49;2.55;;;1.52;;
76599;SDS011;65489;52.048;6.090;2023-04-21T00:47:14;2.60;;;1.75;;
76599;SDS011;65489;52.048;6.090;2023-04-21T00:49:41;3.08;;;2.03;;
76599;SDS011;65489;52.048;6.090;2023-04-21T00:52:07;2.20;;;1.90;;
76599;SDS011;65489;52.048;6.090;2023-04-21T00:54:33;3.15;;;2.00;;
76599;SDS011;65489;52.048;6.090;2023-04-21T00:56:59;2.75;;;1.58;;
76599;SDS011;65489;52.048;6.090;2023-04-21T00:59:26;3.20;;;1.60;;
76599;SDS011;65489;52.048;6.090;2023-04-21T01:01:52;2.92;;;1.80;;
76599;SDS011;65489;52.048;6.090;2023-04-21T01:04:19;2.20;;;1.60;;
76599;SDS011;65489;52.048;6.090;2023-04-21T01:06:44;1.40;;;1.25;;
76599;SDS011;65489;52.048;6.090;2023-04-21T01:09:10;2.75;;;1.90;;
76599;SDS011;65489;52.048;6.090;2023-04-21T01:11:38;2.57;;;1.87;;
76599;SDS011;65489;52.048;6.090;2023-04-21T01:14:06;2.65;;;1.90;;
76599;SDS011;65489;52.048;6.090;2023-04-21T01:16:31;2.05;;;1.85;;
76599;SDS011;65489;52.048;6.090;2023-04-21T01:18:58;2.20;;;1.70;;
76599;SDS011;65489;52.048;6.090;2023-04-21T01:21:24;2.40;;;1.80;;
76599;SDS011;65489;52.048;6.090;2023-04-21T01:23:52;3.33;;;2.00;;
76599;SDS011;65489;52.048;6.090;2023-04-21T01:26:18;2.33;;;1.80;;
76599;SDS011;65489;52.048;6.090;2023-04-21T01:28:45;2.33;;;1.92;;
76599;SDS011;65489;52.048;6.090;2023-04-21T01:31:11;2.47;;;1.70;;
76599;SDS011;65489;52.048;6.090;2023-04-21T01:33:37;2.22;;;1.73;;
76599;SDS011;65489;52.048;6.090;2023-04-21T01:36:02;2.80;;;1.67;;
76599;SDS011;65489;52.048;6.090;2023-04-21T01:38:28;2.30;;;1.85;;
76599;SDS011;65489;52.048;6.090;2023-04-21T01:40:57;2.20;;;1.85;;
76599;SDS011;65489;52.048;6.090;2023-04-21T01:43:23;2.30;;;1.90;;
76599;SDS011;65489;52.048;6.090;2023-04-21T01:45:49;2.60;;;1.73;;
76599;SDS011;65489;52.048;6.090;2023-04-21T01:48:15;3.08;;;1.67;;
76599;SDS011;65489;52.048;6.090;2023-04-21T01:50:40;2.20;;;1.73;;
76599;SDS011;65489;52.048;6.090;2023-04-21T01:53:08;2.65;;;1.95;;
76599;SDS011;65489;52.048;6.090;2023-04-21T01:55:34;2.50;;;2.20;;
76599;SDS011;65489;52.048;6.090;2023-04-21T01:57:59;2.95;;;2.20;;
76599;SDS011;65489;52.048;6.090;2023-04-21T02:00:25;1.92;;;1.50;;
76599;SDS011;65489;52.048;6.090;2023-04-21T02:02:51;2.72;;;1.90;;
76599;SDS011;65489;52.048;6.090;2023-04-21T02:05:17;2.67;;;1.70;;
76599;SDS011;65489;52.048;6.090;2023-04-21T02:07:42;3.15;;;1.80;;
76599;SDS011;65489;52.048;6.090;2023-04-21T02:10:08;1.85;;;1.70;;
76599;SDS011;65489;52.048;6.090;2023-04-21T02:12:34;2.42;;;2.03;;
76599;SDS011;65489;52.048;6.090;2023-04-21T02:14:59;1.95;;;1.67;;
76599;SDS011;65489;52.048;6.090;2023-04-21T02:17:25;1.90;;;1.70;;
76599;SDS011;65489;52.048;6.090;2023-04-21T02:19:55;2.95;;;1.60;;
76599;SDS011;65489;52.048;6.090;2023-04-21T02:22:20;2.25;;;1.70;;
76599;SDS011;65489;52.048;6.090;2023-04-21T02:24:47;2.08;;;1.67;;
76599;SDS011;65489;52.048;6.090;2023-04-21T02:27:13;2.78;;;2.03;;
76599;SDS011;65489;52.048;6.090;2023-04-21T02:29:39;2.75;;;2.00;;
76599;SDS011;65489;52.048;6.090;2023-04-21T02:32:06;1.90;;;1.55;;
76599;SDS011;65489;52.048;6.090;2023-04-21T02:34:32;2.40;;;2.05;;
76599;SDS011;65489;52.048;6.090;2023-04-21T02:36:57;3.53;;;1.95;;
76599;SDS011;65489;52.048;6.090;2023-04-21T02:39:24;2.85;;;2.10;;
76599;SDS011;65489;52.048;6.090;2023-04-21T02:41:50;2.30;;;2.00;;
76599;SDS011;65489;52.048;6.090;2023-04-21T02:44:15;3.08;;;1.70;;
76599;SDS011;65489;52.048;6.090;2023-04-21T02:46:41;2.08;;;1.50;;
76599;SDS011;65489;52.048;6.090;2023-04-21T02:49:07;2.13;;;1.75;;
76599;SDS011;65489;52.048;6.090;2023-04-21T02:51:33;2.55;;;1.70;;
76599;SDS011;65489;52.048;6.090;2023-04-21T02:53:59;2.33;;;1.60;;
76599;SDS011;65489;52.048;6.090;2023-04-21T02:56:25;1.70;;;1.40;;
76599;SDS011;65489;52.048;6.090;2023-04-21T02:58:50;2.25;;;1.58;;
76599;SDS011;65489;52.048;6.090;2023-04-21T03:01:16;2.90;;;2.10;;
76599;SDS011;65489;52.048;6.090;2023-04-21T03:03:41;3.75;;;2.45;;
76599;SDS011;65489;52.048;6.090;2023-04-21T03:06:09;2.47;;;1.75;;
76599;SDS011;65489;52.048;6.090;2023-04-21T03:08:35;1.92;;;1.70;;
76599;SDS011;65489;52.048;6.090;2023-04-21T03:11:00;2.20;;;1.50;;
76599;SDS011;65489;52.048;6.090;2023-04-21T03:13:25;2.88;;;1.80;;
76599;SDS011;65489;52.048;6.090;2023-04-21T03:15:51;2.83;;;2.10;;
76599;SDS011;65489;52.048;6.090;2023-04-21T03:18:16;2.35;;;1.60;;
76599;SDS011;65489;52.048;6.090;2023-04-21T03:20:42;3.30;;;2.55;;
76599;SDS011;65489;52.048;6.090;2023-04-21T03:23:08;2.30;;;1.92;;
76599;SDS011;65489;52.048;6.090;2023-04-21T03:25:34;2.03;;;1.83;;
76599;SDS011;65489;52.048;6.090;2023-04-21T03:28:00;2.58;;;1.92;;
76599;SDS011;65489;52.048;6.090;2023-04-21T03:30:26;3.00;;;2.15;;
76599;SDS011;65489;52.048;6.090;2023-04-21T03:32:51;2.92;;;2.40;;
76599;SDS011;65489;52.048;6.090;2023-04-21T03:35:18;2.40;;;1.85;;
76599;SDS011;65489;52.048;6.090;2023-04-21T03:37:43;2.35;;;1.98;;
76599;SDS011;65489;52.048;6.090;2023-04-21T03:40:09;2.08;;;1.77;;
76599;SDS011;65489;52.048;6.090;2023-04-21T03:42:35;1.70;;;1.52;;
76599;SDS011;65489;52.048;6.090;2023-04-21T03:45:01;2.65;;;1.85;;
76599;SDS011;65489;52.048;6.090;2023-04-21T03:47:31;1.63;;;1.52;;
76599;SDS011;65489;52.048;6.090;2023-04-21T03:49:56;3.00;;;1.67;;
76599;SDS011;65489;52.048;6.090;2023-04-21T03:52:22;2.28;;;1.92;;
76599;SDS011;65489;52.048;6.090;2023-04-21T03:54:48;2.58;;;1.80;;
76599;SDS011;65489;52.048;6.090;2023-04-21T03:57:13;2.47;;;1.98;;
76599;SDS011;65489;52.048;6.090;2023-04-21T03:59:39;2.63;;;2.33;;
76599;SDS011;65489;52.048;6.090;2023-04-21T04:02:05;2.15;;;1.92;;
76599;SDS011;65489;52.048;6.090;2023-04-21T04:04:30;2.17;;;1.63;;
76599;SDS011;65489;52.048;6.090;2023-04-21T04:06:55;2.15;;;1.70;;
76599;SDS011;65489;52.048;6.090;2023-04-21T04:09:21;2.03;;;1.83;;
76599;SDS011;65489;52.048;6.090;2023-04-21T04:11:47;2.70;;;2.30;;
76599;SDS011;65489;52.048;6.090;2023-04-21T04:14:12;2.35;;;1.63;;
76599;SDS011;65489;52.048;6.090;2023-04-21T04:16:38;2.97;;;1.90;;
76599;SDS011;65489;52.048;6.090;2023-04-21T04:19:03;1.95;;;1.67;;
76599;SDS011;65489;52.048;6.090;2023-04-21T04:21:29;2.70;;;2.10;;
76599;SDS011;65489;52.048;6.090;2023-04-21T04:23:56;3.00;;;2.50;;
76599;SDS011;65489;52.048;6.090;2023-04-21T04:26:23;2.35;;;2.15;;
76599;SDS011;65489;52.048;6.090;2023-04-21T04:28:49;2.15;;;1.77;;
76599;SDS011;65489;52.048;6.090;2023-04-21T04:31:15;2.72;;;2.20;;
76599;SDS011;65489;52.048;6.090;2023-04-21T04:33:41;3.03;;;2.50;;
76599;SDS011;65489;52.048;6.090;2023-04-21T04:36:07;1.83;;;1.63;;
76599;SDS011;65489;52.048;6.090;2023-04-21T04:38:32;2.75;;;2.38;;
76599;SDS011;65489;52.048;6.090;2023-04-21T04:40:59;2.15;;;1.70;;
76599;SDS011;65489;52.048;6.090;2023-04-21T04:43:26;2.67;;;2.10;;
76599;SDS011;65489;52.048;6.090;2023-04-21T04:45:52;3.42;;;2.65;;
76599;SDS011;65489;52.048;6.090;2023-04-21T04:48:17;2.75;;;2.15;;
76599;SDS011;65489;52.048;6.090;2023-04-21T04:50:43;2.53;;;2.00;;
76599;SDS011;65489;52.048;6.090;2023-04-21T04:53:09;2.00;;;1.67;;
76599;SDS011;65489;52.048;6.090;2023-04-21T04:55:34;2.42;;;1.90;;
76599;SDS011;65489;52.048;6.090;2023-04-21T04:58:00;2.80;;;2.33;;
76599;SDS011;65489;52.048;6.090;2023-04-21T05:00:26;1.85;;;1.65;;
76599;SDS011;65489;52.048;6.090;2023-04-21T05:02:53;1.98;;;1.75;;
76599;SDS011;65489;52.048;6.090;2023-04-21T05:05:19;1.88;;;1.67;;
76599;SDS011;65489;52.048;6.090;2023-04-21T05:07:45;3.30;;;2.10;;
76599;SDS011;65489;52.048;6.090;2023-04-21T05:10:11;2.85;;;2.30;;
76599;SDS011;65489;52.048;6.090;2023-04-21T05:12:36;1.88;;;1.65;;
76599;SDS011;65489;52.048;6.090;2023-04-21T05:15:02;1.98;;;1.50;;
76599;SDS011;65489;52.048;6.090;2023-04-21T05:17:29;2.85;;;2.20;;
76599;SDS011;65489;52.048;6.090;2023-04-21T05:19:55;2.60;;;1.80;;
76599;SDS011;65489;52.048;6.090;2023-04-21T05:22:20;3.35;;;2.13;;
76599;SDS011;65489;52.048;6.090;2023-04-21T05:24:46;3.55;;;2.50;;
76599;SDS011;65489;52.048;6.090;2023-04-21T05:27:11;2.55;;;1.92;;
76599;SDS011;65489;52.048;6.090;2023-04-21T05:29:37;1.75;;;1.50;;
76599;SDS011;65489;52.048;6.090;2023-04-21T05:32:02;1.88;;;1.55;;
76599;SDS011;65489;52.048;6.090;2023-04-21T05:34:28;2.00;;;1.60;;
76599;SDS011;65489;52.048;6.090;2023-04-21T05:36:53;2.20;;;1.60;;
76599;SDS011;65489;52.048;6.090;2023-04-21T05:39:19;2.70;;;1.52;;
76599;SDS011;65489;52.048;6.090;2023-04-21T05:41:44;2.42;;;1.85;;
76599;SDS011;65489;52.048;6.090;2023-04-21T05:44:10;2.95;;;2.35;;
76599;SDS011;65489;52.048;6.090;2023-04-21T05:46:35;2.30;;;1.67;;
76599;SDS011;65489;52.048;6.090;2023-04-21T05:49:01;2.67;;;2.00;;
76599;SDS011;65489;52.048;6.090;2023-04-21T05:51:26;2.40;;;1.90;;
76599;SDS011;65489;52.048;6.090;2023-04-21T05:53:52;3.38;;;1.73;;
76599;SDS011;65489;52.048;6.090;2023-04-21T05:56:17;2.22;;;1.83;;
76599;SDS011;65489;52.048;6.090;2023-04-21T05:58:43;2.17;;;1.73;;
76599;SDS011;65489;52.048;6.090;2023-04-21T06:01:08;2.50;;;2.10;;
76599;SDS011;65489;52.048;6.090;2023-04-21T06:03:34;2.53;;;2.00;;
76599;SDS011;65489;52.048;6.090;2023-04-21T06:06:01;1.73;;;1.55;;
76599;SDS011;65489;52.048;6.090;2023-04-21T06:08:27;2.50;;;1.50;;
76599;SDS011;65489;52.048;6.090;2023-04-21T06:10:52;2.65;;;1.75;;
76599;SDS011;65489;52.048;6.090;2023-04-21T06:13:18;2.65;;;1.60;;
76599;SDS011;65489;52.048;6.090;2023-04-21T06:15:43;2.53;;;1.90;;
76599;SDS011;65489;52.048;6.090;2023-04-21T06:18:08;1.92;;;1.77;;
76599;SDS011;65489;52.048;6.090;2023-04-21T06:20:34;2.38;;;1.88;;
76599;SDS011;65489;52.048;6.090;2023-04-21T06:22:59;1.85;;;1.60;;
76599;SDS011;65489;52.048;6.090;2023-04-21T06:25:25;1.77;;;1.65;;
76599;SDS011;65489;52.048;6.090;2023-04-21T06:27:50;2.30;;;2.05;;
76599;SDS011;65489;52.048;6.090;2023-04-21T06:30:16;2.53;;;1.98;;
76599;SDS011;65489;52.048;6.090;2023-04-21T06:32:41;3.28;;;2.38;;
76599;SDS011;65489;52.048;6.090;2023-04-21T06:35:07;2.00;;;1.75;;
76599;SDS011;65489;52.048;6.090;2023-04-21T06:37:33;2.20;;;1.52;;
76599;SDS011;65489;52.048;6.090;2023-04-21T06:39:58;2.42;;;2.20;;
76599;SDS011;65489;52.048;6.090;2023-04-21T06:42:24;1.92;;;1.73;;
76599;SDS011;65489;52.048;6.090;2023-04-21T06:44:49;2.58;;;1.90;;
76599;SDS011;65489;52.048;6.090;2023-04-21T06:47:15;1.88;;;1.60;;
76599;SDS011;65489;52.048;6.090;2023-04-21T06:49:41;3.13;;;2.17;;
76599;SDS011;65489;52.048;6.090;2023-04-21T06:52:06;2.28;;;1.98;;
76599;SDS011;65489;52.048;6.090;2023-04-21T06:54:31;2.33;;;1.77;;
76599;SDS011;65489;52.048;6.090;2023-04-21T06:56:57;1.77;;;1.60;;
76599;SDS011;65489;52.048;6.090;2023-04-21T06:59:22;2.20;;;1.75;;
76599;SDS011;65489;52.048;6.090;2023-04-21T07:01:48;1.90;;;1.65;;
76599;SDS011;65489;52.048;6.090;2023-04-21T07:04:16;1.70;;;1.60;;
76599;SDS011;65489;52.048;6.090;2023-04-21T07:06:42;1.73;;;1.48;;
76599;SDS011;65489;52.048;6.090;2023-04-21T07:09:07;2.20;;;1.90;;
76599;SDS011;65489;52.048;6.090;2023-04-21T07:11:33;2.38;;;1.52;;
76599;SDS011;65489;52.048;6.090;2023-04-21T07:13:58;2.63;;;1.98;;
76599;SDS011;65489;52.048;6.090;2023-04-21T07:16:26;2.97;;;2.20;;
76599;SDS011;65489;52.048;6.090;2023-04-21T07:18:54;3.30;;;2.00;;
76599;SDS011;65489;52.048;6.090;2023-04-21T07:21:20;3.33;;;2.22;;
76599;SDS011;65489;52.048;6.090;2023-04-21T07:23:45;3.80;;;2.20;;
76599;SDS011;65489;52.048;6.090;2023-04-21T07:26:11;3.28;;;2.13;;
76599;SDS011;65489;52.048;6.090;2023-04-21T07:28:37;3.38;;;2.03;;
76599;SDS011;65489;52.048;6.090;2023-04-21T07:31:04;5.45;;;2.50;;
76599;SDS011;65489;52.048;6.090;2023-04-21T07:33:30;6.60;;;2.47;;
76599;SDS011;65489;52.048;6.090;2023-04-21T07:35:55;3.50;;;2.30;;
76599;SDS011;65489;52.048;6.090;2023-04-21T07:38:21;6.57;;;2.40;;
76599;SDS011;65489;52.048;6.090;2023-04-21T07:40:46;4.57;;;2.42;;
76599;SDS011;65489;52.048;6.090;2023-04-21T07:43:12;4.57;;;2.40;;
76599;SDS011;65489;52.048;6.090;2023-04-21T07:45:37;6.78;;;2.80;;
76599;SDS011;65489;52.048;6.090;2023-04-21T07:48:03;6.80;;;3.20;;
76599;SDS011;65489;52.048;6.090;2023-04-21T07:50:30;6.55;;;2.58;;
76599;SDS011;65489;52.048;6.090;2023-04-21T07:52:55;7.70;;;3.30;;
76599;SDS011;65489;52.048;6.090;2023-04-21T07:55:21;7.57;;;2.75;;
76599;SDS011;65489;52.048;6.090;2023-04-21T07:57:46;6.50;;;2.67;;
76599;SDS011;65489;52.048;6.090;2023-04-21T08:00:12;7.65;;;3.03;;
76599;SDS011;65489;52.048;6.090;2023-04-21T08:02:37;7.18;;;3.15;;
76599;SDS011;65489;52.048;6.090;2023-04-21T08:05:03;9.73;;;3.22;;
76599;SDS011;65489;52.048;6.090;2023-04-21T08:07:29;6.75;;;3.08;;
76599;SDS011;65489;52.048;6.090;2023-04-21T08:09:55;9.75;;;3.33;;
76599;SDS011;65489;52.048;6.090;2023-04-21T08:12:20;8.05;;;3.30;;
76599;SDS011;65489;52.048;6.090;2023-04-21T08:14:46;7.63;;;3.17;;
76599;SDS011;65489;52.048;6.090;2023-04-21T08:17:11;9.40;;;3.60;;
76599;SDS011;65489;52.048;6.090;2023-04-21T08:19:37;6.75;;;3.05;;
76599;SDS011;65489;52.048;6.090;2023-04-21T08:22:02;8.10;;;3.28;;
76599;SDS011;65489;52.048;6.090;2023-04-21T08:24:27;9.07;;;3.05;;
76599;SDS011;65489;52.048;6.090;2023-04-21T08:26:53;6.47;;;2.92;;
76599;SDS011;65489;52.048;6.090;2023-04-21T08:29:18;6.68;;;3.30;;
76599;SDS011;65489;52.048;6.090;2023-04-21T08:31:44;7.03;;;3.22;;
76599;SDS011;65489;52.048;6.090;2023-04-21T08:34:09;7.18;;;2.95;;
76599;SDS011;65489;52.048;6.090;2023-04-21T08:36:35;7.35;;;3.53;;
76599;SDS011;65489;52.048;6.090;2023-04-21T08:39:00;9.00;;;3.80;;
76599;SDS011;65489;52.048;6.090;2023-04-21T08:41:26;7.80;;;3.67;;
76599;SDS011;65489;52.048;6.090;2023-04-21T08:43:57;6.25;;;3.15;;
76599;SDS011;65489;52.048;6.090;2023-04-21T08:46:23;5.93;;;3.03;;
76599;SDS011;65489;52.048;6.090;2023-04-21T08:48:48;9.73;;;3.30;;
76599;SDS011;65489;52.048;6.090;2023-04-21T08:51:17;7.22;;;3.08;;
76599;SDS011;65489;52.048;6.090;2023-04-21T08:53:46;6.72;;;3.13;;
76599;SDS011;65489;52.048;6.090;2023-04-21T08:56:11;7.45;;;3.30;;
76599;SDS011;65489;52.048;6.090;2023-04-21T08:58:36;7.53;;;3.00;;
76599;SDS011;65489;52.048;6.090;2023-04-21T09:01:02;8.00;;;2.85;;
76599;SDS011;65489;52.048;6.090;2023-04-21T09:03:28;6.65;;;3.30;;
76599;SDS011;65489;52.048;6.090;2023-04-21T09:08:28;6.13;;;3.38;;
76599;SDS011;65489;52.048;6.090;2023-04-21T09:10:55;6.65;;;3.20;;
76599;SDS011;65489;52.048;6.090;2023-04-21T09:13:21;4.47;;;2.63;;
76599;SDS011;65489;52.048;6.090;2023-04-21T09:15:53;7.07;;;3.08;;
76599;SDS011;65489;52.048;6.090;2023-04-21T09:18:20;6.55;;;2.85;;
76599;SDS011;65489;52.048;6.090;2023-04-21T09:20:47;6.20;;;3.20;;
76599;SDS011;65489;52.048;6.090;2023-04-21T09:23:19;5.97;;;2.83;;
76599;SDS011;65489;52.048;6.090;2023-04-21T09:25:45;7.22;;;3.15;;
76599;SDS011;65489;52.048;6.090;2023-04-21T09:28:13;6.00;;;3.25;;
76599;SDS011;65489;52.048;6.090;2023-04-21T09:30:39;5.40;;;3.00;;
76599;SDS011;65489;52.048;6.090;2023-04-21T09:33:07;6.80;;;2.60;;
76599;SDS011;65489;52.048;6.090;2023-04-21T09:35:38;4.97;;;2.90;;
76599;SDS011;65489;52.048;6.090;2023-04-21T09:38:08;6.78;;;3.10;;
76599;SDS011;65489;52.048;6.090;2023-04-21T09:40:35;6.40;;;3.30;;
76599;SDS011;65489;52.048;6.090;2023-04-21T09:43:00;8.07;;;3.25;;
76599;SDS011;65489;52.048;6.090;2023-04-21T09:45:26;5.85;;;2.97;;
76599;SDS011;65489;52.048;6.090;2023-04-21T09:47:54;6.35;;;3.13;;
76599;SDS011;65489;52.048;6.090;2023-04-21T09:50:20;6.53;;;3.08;;
76599;SDS011;65489;52.048;6.090;2023-04-21T09:52:46;5.25;;;2.80;;
76599;SDS011;65489;52.048;6.090;2023-04-21T09:55:15;6.57;;;3.33;;
76599;SDS011;65489;52.048;6.090;2023-04-21T09:57:42;7.40;;;3.30;;
76599;SDS011;65489;52.048;6.090;2023-04-21T10:00:10;4.70;;;2.78;;
76599;SDS011;65489;52.048;6.090;2023-04-21T10:02:39;5.18;;;2.83;;
76599;SDS011;65489;52.048;6.090;2023-04-21T10:05:07;6.60;;;3.42;;
76599;SDS011;65489;52.048;6.090;2023-04-21T10:07:34;5.85;;;3.22;;
76599;SDS011;65489;52.048;6.090;2023-04-21T10:10:00;6.43;;;3.38;;
76599;SDS011;65489;52.048;6.090;2023-04-21T10:12:26;6.82;;;3.50;;
76599;SDS011;65489;52.048;6.090;2023-04-21T10:14:52;5.85;;;2.92;;
76599;SDS011;65489;52.048;6.090;2023-04-21T10:17:20;4.50;;;3.00;;
76599;SDS011;65489;52.048;6.090;2023-04-21T10:22:14;7.53;;;3.17;;
76599;SDS011;65489;52.048;6.090;2023-04-21T10:24:53;4.53;;;2.72;;
76599;SDS011;65489;52.048;6.090;2023-04-21T10:27:34;6.65;;;2.65;;
76599;SDS011;65489;52.048;6.090;2023-04-21T10:30:18;4.90;;;3.22;;
76599;SDS011;65489;52.048;6.090;2023-04-21T10:32:47;4.78;;;2.90;;
76599;SDS011;65489;52.048;6.090;2023-04-21T10:35:14;5.10;;;2.78;;
76599;SDS011;65489;52.048;6.090;2023-04-21T10:37:42;5.20;;;3.13;;
76599;SDS011;65489;52.048;6.090;2023-04-21T10:40:53;4.90;;;2.70;;
76599;SDS011;65489;52.048;6.090;2023-04-21T10:43:01;4.60;;;2.83;;
76599;SDS011;65489;52.048;6.090;2023-04-21T10:45:27;4.30;;;3.25;;
76599;SDS011;65489;52.048;6.090;2023-04-21T10:47:53;5.25;;;3.08;;
76599;SDS011;65489;52.048;6.090;2023-04-21T10:50:22;6.78;;;3.03;;
76599;SDS011;65489;52.048;6.090;2023-04-21T10:52:52;4.20;;;2.78;;
76599;SDS011;65489;52.048;6.090;2023-04-21T10:55:19;3.90;;;2.75;;
76599;SDS011;65489;52.048;6.090;2023-04-21T10:57:46;4.45;;;3.63;;
76599;SDS011;65489;52.048;6.090;2023-04-21T11:00:19;6.78;;;3.70;;
76599;SDS011;65489;52.048;6.090;2023-04-21T11:02:53;4.82;;;3.03;;
76599;SDS011;65489;52.048;6.090;2023-04-21T11:05:27;6.28;;;3.13;;
76599;SDS011;65489;52.048;6.090;2023-04-21T11:08:11;5.47;;;3.08;;
76599;SDS011;65489;52.048;6.090;2023-04-21T11:10:49;4.88;;;3.15;;
76599;SDS011;65489;52.048;6.090;2023-04-21T11:13:16;4.70;;;3.30;;
76599;SDS011;65489;52.048;6.090;2023-04-21T11:15:54;4.93;;;3.13;;
76599;SDS011;65489;52.048;6.090;2023-04-21T11:18:20;5.03;;;3.10;;
76599;SDS011;65489;52.048;6.090;2023-04-21T11:20:46;4.28;;;3.10;;
76599;SDS011;65489;52.048;6.090;2023-04-21T11:23:16;4.10;;;2.83;;
76599;SDS011;65489;52.048;6.090;2023-04-21T11:25:44;6.28;;;3.20;;
76599;SDS011;65489;52.048;6.090;2023-04-21T11:28:10;4.88;;;2.78;;
76599;SDS011;65489;52.048;6.090;2023-04-21T11:30:35;5.78;;;3.28;;
76599;SDS011;65489;52.048;6.090;2023-04-21T11:33:01;6.28;;;3.20;;
76599;SDS011;65489;52.048;6.090;2023-04-21T11:35:26;5.13;;;3.10;;
76599;SDS011;65489;52.048;6.090;2023-04-21T11:37:52;4.68;;;2.70;;
76599;SDS011;65489;52.048;6.090;2023-04-21T11:40:19;4.55;;;3.05;;
76599;SDS011;65489;52.048;6.090;2023-04-21T11:42:44;4.03;;;2.83;;
76599;SDS011;65489;52.048;6.090;2023-04-21T11:45:16;4.82;;;2.83;;
76599;SDS011;65489;52.048;6.090;2023-04-21T11:47:43;4.93;;;3.30;;
76599;SDS011;65489;52.048;6.090;2023-04-21T11:50:08;4.95;;;3.30;;
76599;SDS011;65489;52.048;6.090;2023-04-21T11:52:35;4.70;;;3.28;;
76599;SDS011;65489;52.048;6.090;2023-04-21T11:55:12;4.13;;;2.70;;
76599;SDS011;65489;52.048;6.090;2023-04-21T11:57:43;5.68;;;3.63;;
76599;SDS011;65489;52.048;6.090;2023-04-21T12:00:09;5.43;;;3.70;;
76599;SDS011;65489;52.048;6.090;2023-04-21T12:02:37;5.03;;;2.92;;
76599;SDS011;65489;52.048;6.090;2023-04-21T12:05:03;4.63;;;3.50;;
76599;SDS011;65489;52.048;6.090;2023-04-21T12:07:34;4.97;;;3.65;;
76599;SDS011;65489;52.048;6.090;2023-04-21T12:10:10;6.13;;;3.42;;
76599;SDS011;65489;52.048;6.090;2023-04-21T12:12:37;6.32;;;4.32;;
76599;SDS011;65489;52.048;6.090;2023-04-21T12:15:03;6.60;;;3.53;;
76599;SDS011;65489;52.048;6.090;2023-04-21T12:17:36;3.63;;;3.17;;
76599;SDS011;65489;52.048;6.090;2023-04-21T12:20:03;4.13;;;2.88;;
76599;SDS011;65489;52.048;6.090;2023-04-21T12:22:32;4.03;;;3.10;;
76599;SDS011;65489;52.048;6.090;2023-04-21T12:24:58;4.75;;;3.70;;
76599;SDS011;65489;52.048;6.090;2023-04-21T12:27:23;4.95;;;3.30;;
76599;SDS011;65489;52.048;6.090;2023-04-21T12:29:54;4.30;;;3.05;;
76599;SDS011;65489;52.048;6.090;2023-04-21T12:32:20;3.85;;;3.03;;
76599;SDS011;65489;52.048;6.090;2023-04-21T12:34:45;5.47;;;3.55;;
76599;SDS011;65489;52.048;6.090;2023-04-21T12:37:11;5.20;;;3.80;;
76599;SDS011;65489;52.048;6.090;2023-04-21T12:39:36;5.05;;;3.58;;
76599;SDS011;65489;52.048;6.090;2023-04-21T12:42:05;4.72;;;3.25;;
76599;SDS011;65489;52.048;6.090;2023-04-21T12:44:38;4.10;;;3.30;;
76599;SDS011;65489;52.048;6.090;2023-04-21T12:47:04;4.63;;;3.30;;
76599;SDS011;65489;52.048;6.090;2023-04-21T12:49:30;4.07;;;3.08;;
76599;SDS011;65489;52.048;6.090;2023-04-21T12:51:55;4.88;;;3.17;;
76599;SDS011;65489;52.048;6.090;2023-04-21T12:54:21;4.15;;;3.00;;
76599;SDS011;65489;52.048;6.090;2023-04-21T12:56:46;4.78;;;3.03;;
76599;SDS011;65489;52.048;6.090;2023-04-21T12:59:12;3.97;;;3.25;;
76599;SDS011;65489;52.048;6.090;2023-04-21T13:01:38;4.47;;;3.33;;
76599;SDS011;65489;52.048;6.090;2023-04-21T13:04:05;4.00;;;3.05;;
76599;SDS011;65489;52.048;6.090;2023-04-21T13:06:31;4.75;;;3.80;;
76599;SDS011;65489;52.048;6.090;2023-04-21T13:08:57;4.53;;;3.53;;
76599;SDS011;65489;52.048;6.090;2023-04-21T13:11:23;3.97;;;3.13;;
76599;SDS011;65489;52.048;6.090;2023-04-21T13:13:48;4.38;;;3.17;;
76599;SDS011;65489;52.048;6.090;2023-04-21T13:16:14;5.05;;;3.10;;
76599;SDS011;65489;52.048;6.090;2023-04-21T13:18:40;4.35;;;3.65;;
76599;SDS011;65489;52.048;6.090;2023-04-21T13:21:05;6.35;;;3.53;;
76599;SDS011;65489;52.048;6.090;2023-04-21T13:23:31;5.40;;;3.88;;
76599;SDS011;65489;52.048;6.090;2023-04-21T13:25:56;7.13;;;3.75;;
76599;SDS011;65489;52.048;6.090;2023-04-21T13:28:22;4.28;;;3.22;;
76599;SDS011;65489;52.048;6.090;2023-04-21T13:30:49;4.40;;;2.70;;
76599;SDS011;65489;52.048;6.090;2023-04-21T13:33:15;5.10;;;3.38;;
76599;SDS011;65489;52.048;6.090;2023-04-21T13:35:41;5.32;;;3.50;;
76599;SDS011;65489;52.048;6.090;2023-04-21T13:38:06;5.35;;;4.00;;
76599;SDS011;65489;52.048;6.090;2023-04-21T13:40:31;5.22;;;3.63;;
76599;SDS011;65489;52.048;6.090;2023-04-21T13:42:57;6.00;;;3.85;;
76599;SDS011;65489;52.048;6.090;2023-04-21T13:45:23;3.85;;;3.13;;
76599;SDS011;65489;52.048;6.090;2023-04-21T13:47:49;4.88;;;3.90;;
76599;SDS011;65489;52.048;6.090;2023-04-21T13:50:15;4.32;;;3.10;;
76599;SDS011;65489;52.048;6.090;2023-04-21T13:52:41;3.70;;;3.17;;
76599;SDS011;65489;52.048;6.090;2023-04-21T13:55:07;3.83;;;3.00;;
76599;SDS011;65489;52.048;6.090;2023-04-21T13:57:32;4.10;;;3.30;;
76599;SDS011;65489;52.048;6.090;2023-04-21T13:59:58;4.97;;;3.58;;
76599;SDS011;65489;52.048;6.090;2023-04-21T14:02:23;5.60;;;3.97;;
76599;SDS011;65489;52.048;6.090;2023-04-21T14:04:50;4.75;;;4.13;;
76599;SDS011;65489;52.048;6.090;2023-04-21T14:07:16;4.03;;;3.38;;
76599;SDS011;65489;52.048;6.090;2023-04-21T14:09:44;3.78;;;3.33;;
76599;SDS011;65489;52.048;6.090;2023-04-21T14:12:10;4.20;;;3.47;;
76599;SDS011;65489;52.048;6.090;2023-04-21T14:14:36;4.07;;;3.20;;
76599;SDS011;65489;52.048;6.090;2023-04-21T14:17:01;4.45;;;3.67;;
76599;SDS011;65489;52.048;6.090;2023-04-21T14:19:28;3.92;;;3.33;;
76599;SDS011;65489;52.048;6.090;2023-04-21T14:21:53;5.25;;;3.58;;
76599;SDS011;65489;52.048;6.090;2023-04-21T14:24:19;5.47;;;3.92;;
76599;SDS011;65489;52.048;6.090;2023-04-21T14:26:45;4.43;;;3.58;;
76599;SDS011;65489;52.048;6.090;2023-04-21T14:29:11;5.50;;;4.40;;
76599;SDS011;65489;52.048;6.090;2023-04-21T14:31:36;4.80;;;3.55;;
76599;SDS011;65489;52.048;6.090;2023-04-21T14:34:02;5.13;;;3.40;;
76599;SDS011;65489;52.048;6.090;2023-04-21T14:36:27;3.83;;;3.22;;
76599;SDS011;65489;52.048;6.090;2023-04-21T14:38:53;5.32;;;3.38;;
76599;SDS011;65489;52.048;6.090;2023-04-21T14:41:18;3.90;;;3.25;;
76599;SDS011;65489;52.048;6.090;2023-04-21T14:43:44;3.85;;;3.40;;
76599;SDS011;65489;52.048;6.090;2023-04-21T14:46:09;5.65;;;4.25;;
76599;SDS011;65489;52.048;6.090;2023-04-21T14:48:35;4.85;;;3.67;;